createdAt,value
2023-04-02T00:01:43.335Z,78.37
2023-04-02T00:04:29.482Z,78.34
2023-04-02T00:07:33.520Z,78.49
2023-04-02T00:10:33.249Z,78.44
2023-04-02T00:20:08.825Z,78.69
2023-04-02T00:25:42.358Z,78.59
2023-04-02T00:28:27.360Z,78.45
2023-04-02T00:31:12.689Z,78.58
2023-04-02T00:36:53.469Z,78.56
2023-04-02T00:45:58.644Z,79.15
2023-04-02T00:58:01.362Z,78.74
2023-04-02T01:00:51.391Z,78.44
2023-04-02T01:03:37.899Z,78.64
2023-04-02T01:12:58.248Z,78.46
2023-04-02T01:15:53.213Z,78.39
2023-04-02T01:18:50.515Z,78.27
2023-04-02T01:21:45.563Z,78.31
2023-04-02T01:24:33.629Z,78.46
2023-04-02T01:27:36.436Z,78.47
2023-04-02T01:37:07.844Z,78.54
2023-04-02T01:40:17.756Z,78.09
2023-04-02T01:43:15.346Z,78.23
2023-04-02T01:46:22.829Z,78.17
2023-04-02T01:49:15.234Z,78.45
2023-04-02T01:52:00.458Z,78.32
2023-04-02T01:54:47.140Z,78.76
2023-04-02T01:57:32.308Z,78.52
2023-04-02T02:00:18.573Z,78.59
2023-04-02T02:06:18.062Z,78.89
2023-04-02T02:09:06.859Z,78.73
2023-04-02T02:11:52.178Z,79.01
2023-04-02T02:14:37.368Z,79.04
2023-04-02T02:17:33.813Z,79.02
2023-04-02T02:20:19.213Z,79.11
2023-04-02T02:23:05.319Z,79.38
2023-04-02T02:25:50.862Z,78.98
2023-04-02T02:28:40.719Z,79.08
2023-04-02T02:31:32.484Z,79.12
2023-04-02T02:34:24.273Z,79.09
2023-04-02T02:37:17.595Z,79.08
2023-04-02T02:40:09.737Z,79.11
2023-04-02T02:43:00.671Z,79.19
2023-04-02T02:45:48.202Z,79.09
2023-04-02T02:48:39.084Z,79.02
2023-04-02T02:51:38.955Z,78.91
2023-04-02T02:54:26.739Z,79.06
2023-04-02T02:57:22.630Z,79.09
2023-04-02T03:00:11.141Z,79.12
2023-04-02T03:05:58.090Z,79.14
2023-04-02T03:09:03.518Z,79.11
2023-04-02T03:12:08.478Z,79.05
2023-04-02T03:15:08.053Z,79.03
2023-04-02T03:18:17.771Z,78.99
2023-04-02T03:21:03.741Z,78.92
2023-04-02T03:23:56.329Z,79.07
2023-04-02T03:26:54.754Z,79.32
2023-04-02T03:29:45.777Z,79.21
2023-04-02T03:32:37.265Z,79.07
2023-04-02T03:35:35.305Z,79.02
2023-04-02T03:38:31.936Z,78.84
2023-04-02T03:41:23.568Z,78.56
2023-04-02T03:44:40.180Z,78.52
2023-04-02T03:47:34.925Z,78.45
2023-04-02T03:50:47.072Z,78.47
2023-04-02T03:53:33.174Z,78.56
2023-04-02T03:56:26.160Z,78.53
2023-04-02T03:59:43.432Z,78.62
2023-04-02T04:02:43.350Z,78.60
2023-04-02T04:05:31.457Z,78.58
2023-04-02T04:08:21.602Z,78.64
2023-04-02T04:11:10.483Z,78.90
2023-04-02T04:14:18.763Z,79.02
2023-04-02T04:17:23.951Z,78.98
2023-04-02T04:20:27.457Z,78.87
2023-04-02T04:23:29.996Z,78.76
2023-04-02T04:26:35.585Z,78.82
2023-04-02T04:29:45.929Z,78.88
2023-04-02T04:32:38.456Z,78.89
2023-04-02T04:35:26.646Z,79.12
2023-04-02T04:38:32.285Z,79.13
2023-04-02T04:44:13.247Z,79.36
2023-04-02T04:47:17.124Z,79.16
2023-04-02T04:50:16.656Z,79.16
2023-04-02T04:53:07.874Z,79.22
2023-04-02T04:55:58.269Z,79.21
2023-04-02T04:58:55.614Z,79.23
2023-04-02T05:02:02.656Z,79.21
2023-04-02T05:04:51.021Z,79.33
2023-04-02T05:07:47.336Z,79.49
2023-04-02T05:10:54.541Z,79.50
2023-04-02T05:13:51.209Z,79.34
2023-04-02T05:23:29.709Z,79.81
2023-04-02T05:26:20.996Z,79.97
2023-04-02T05:29:14.776Z,79.83
2023-04-02T05:32:09.387Z,80.04
2023-04-02T05:34:57.136Z,79.80
2023-04-02T05:37:44.633Z,80.01
2023-04-02T05:40:36.450Z,79.96
2023-04-02T05:43:25.485Z,79.92
2023-04-02T05:46:20.851Z,80.04
2023-04-02T05:49:13.345Z,80.08
2023-04-02T05:52:01.611Z,80.10
2023-04-02T05:55:12.814Z,80.02
2023-04-02T06:01:20.914Z,79.59
2023-04-02T06:04:13.360Z,79.67
2023-04-02T06:07:10.065Z,79.71
2023-04-02T06:10:08.878Z,79.69
2023-04-02T06:13:05.309Z,79.83
2023-04-02T06:15:50.791Z,79.75
2023-04-02T06:18:36.434Z,79.67
2023-04-02T06:21:21.892Z,79.41
2023-04-02T06:24:13.440Z,79.55
2023-04-02T06:27:05.299Z,79.70
2023-04-02T06:29:52.645Z,79.32
2023-04-02T06:32:38.213Z,79.26
2023-04-02T06:35:23.216Z,79.34
2023-04-02T06:38:25.071Z,79.06
2023-04-02T06:41:18.130Z,79.13
2023-04-02T06:44:14.601Z,79.09
2023-04-02T06:47:06.940Z,79.07
2023-04-02T06:50:03.854Z,79.06
2023-04-02T06:52:57.375Z,79.07
2023-04-02T06:56:03.459Z,79.10
2023-04-02T06:58:49.011Z,78.88
2023-04-02T07:02:00.423Z,79.07
2023-04-02T07:08:00.892Z,78.90
2023-04-02T07:14:02.711Z,78.58
2023-04-02T07:16:51.564Z,78.34
2023-04-02T07:19:36.845Z,78.35
2023-04-02T07:22:25.116Z,78.29
2023-04-02T07:25:10.740Z,78.39
2023-04-02T07:27:56.449Z,78.35
2023-04-02T07:30:42.510Z,78.24
2023-04-02T07:33:29.771Z,78.19
2023-04-02T07:36:18.540Z,78.21
2023-04-02T07:39:04.544Z,78.23
2023-04-02T07:44:30.002Z,78.37
2023-04-02T07:47:16.225Z,78.33
2023-04-02T07:50:01.529Z,78.40
2023-04-02T07:52:46.980Z,78.32
2023-04-02T07:56:06.617Z,78.39
2023-04-02T07:58:52.033Z,78.09
2023-04-02T08:04:32.962Z,77.93
2023-04-02T08:07:22.596Z,77.93
2023-04-02T08:15:58.259Z,78.17
2023-04-02T08:24:56.156Z,77.98
2023-04-02T08:30:49.319Z,77.70
2023-04-02T08:33:35.188Z,77.70
2023-04-02T08:36:28.125Z,77.57
2023-04-02T08:39:14.107Z,77.34
2023-04-02T08:42:06.677Z,77.43
2023-04-02T08:45:27.104Z,77.43
2023-04-02T08:48:15.008Z,77.64
2023-04-02T08:51:01.700Z,77.51
2023-04-02T08:53:47.208Z,77.37
2023-04-02T08:56:39.941Z,77.08
2023-04-02T08:59:38.294Z,76.98
2023-04-02T09:02:41.117Z,77.09
2023-04-02T09:05:31.307Z,76.87
2023-04-02T09:11:27.050Z,76.56
2023-04-02T09:14:19.340Z,76.65
2023-04-02T09:17:19.586Z,76.54
2023-04-02T09:20:16.783Z,76.62
2023-04-02T09:23:01.864Z,76.26
2023-04-02T09:26:03.666Z,75.87
2023-04-02T09:29:00.784Z,75.74
2023-04-02T09:31:54.998Z,75.73
2023-04-02T09:34:40.139Z,75.80
2023-04-02T09:37:25.525Z,75.19
2023-04-02T09:40:25.513Z,75.15
2023-04-02T09:43:12.683Z,75.13
2023-04-02T09:45:59.441Z,75.10
2023-04-02T09:48:52.520Z,74.96
2023-04-02T09:51:37.697Z,74.95
2023-04-02T09:54:23.076Z,74.92
2023-04-02T09:57:23.135Z,74.40
2023-04-02T10:00:32.503Z,74.55
2023-04-02T10:03:25.509Z,74.30
2023-04-02T10:06:13.589Z,74.21
2023-04-02T10:09:19.522Z,73.52
2023-04-02T10:12:11.847Z,73.80
2023-04-02T10:15:00.051Z,73.94
2023-04-02T10:17:51.116Z,74.23
2023-04-02T10:20:50.434Z,74.18
2023-04-02T10:23:36.562Z,74.41
2023-04-02T10:26:40.039Z,74.22
2023-04-02T10:29:48.785Z,74.24
2023-04-02T10:32:48.535Z,74.13
2023-04-02T10:35:47.294Z,74.37
2023-04-02T10:38:46.447Z,73.93
2023-04-02T10:41:42.053Z,73.47
2023-04-02T10:44:59.465Z,73.43
2023-04-02T10:48:04.025Z,73.59
2023-04-02T10:50:56.693Z,73.77
2023-04-02T10:53:57.223Z,73.86
2023-04-02T10:56:51.207Z,73.40
2023-04-02T10:59:47.581Z,73.29
2023-04-02T11:02:35.842Z,72.96
2023-04-02T11:05:43.478Z,72.86
2023-04-02T11:08:47.166Z,73.03
2023-04-02T11:14:31.353Z,72.91
2023-04-02T11:17:20.225Z,72.71
2023-04-02T11:20:43.323Z,72.22
2023-04-02T11:23:39.144Z,72.07
2023-04-02T11:30:02.351Z,72.56
2023-04-02T11:32:50.143Z,72.69
2023-04-02T11:35:39.186Z,72.35
2023-04-02T11:38:25.828Z,72.56
2023-04-02T11:41:11.318Z,72.27
2023-04-02T11:44:10.729Z,72.12
2023-04-02T12:10:31.550Z,71.52
2023-04-02T12:13:21.291Z,71.57
2023-04-02T12:21:59.020Z,71.29
2023-04-02T12:27:47.992Z,71.61
2023-04-02T12:40:25.475Z,70.79
2023-04-02T12:46:07.464Z,70.88
2023-04-02T12:49:05.383Z,71.05
2023-04-02T12:51:51.402Z,71.13
2023-04-02T12:54:45.087Z,71.48
2023-04-02T12:57:33.748Z,71.32
2023-04-02T13:00:22.248Z,71.01
2023-04-02T13:05:58.293Z,71.25
2023-04-02T13:08:44.730Z,70.80
2023-04-02T13:11:38.321Z,70.70
2023-04-02T13:17:05.825Z,70.92
2023-04-02T13:26:08.972Z,70.48
2023-04-02T13:29:19.454Z,70.26
2023-04-02T13:32:24.722Z,70.63
2023-04-02T13:35:10.055Z,70.88
2023-04-02T13:37:55.049Z,70.47
2023-04-02T13:40:40.718Z,70.47
2023-04-02T13:43:25.934Z,70.77
2023-04-02T13:46:21.923Z,70.56
2023-04-02T13:49:09.212Z,70.55
2023-04-02T13:51:58.208Z,70.35
2023-04-02T13:54:50.782Z,70.57
2023-04-02T13:57:35.900Z,70.37
2023-04-02T14:00:21.217Z,70.17
2023-04-02T14:03:15.891Z,70.35
2023-04-02T14:06:12.314Z,70.62
2023-04-02T14:09:07.676Z,70.77
2023-04-02T14:11:59.165Z,70.54
2023-04-02T14:14:45.242Z,70.74
2023-04-02T14:17:56.717Z,70.62
2023-04-02T14:20:56.012Z,70.56
2023-04-02T14:23:53.870Z,70.26
2023-04-02T14:33:01.386Z,70.47
2023-04-02T14:36:24.541Z,70.16
2023-04-02T14:39:38.309Z,70.13
2023-04-02T14:49:27.066Z,70.49
2023-04-02T14:52:19.359Z,70.82
2023-04-02T14:55:09.398Z,71.08
2023-04-02T14:57:55.068Z,71.07
2023-04-02T15:00:51.599Z,71.02
2023-04-02T15:03:45.748Z,70.74
2023-04-02T15:09:57.989Z,70.52
2023-04-02T15:12:46.432Z,70.23
2023-04-02T15:15:52.167Z,70.07
2023-04-02T15:18:38.881Z,70.00
2023-04-02T15:21:55.923Z,70.05
2023-04-02T15:24:59.126Z,70.07
2023-04-02T15:28:12.146Z,70.41
2023-04-02T15:31:03.564Z,70.64
2023-04-02T15:34:01.231Z,70.59
2023-04-02T15:36:58.355Z,70.47
2023-04-02T15:40:15.892Z,70.26
2023-04-02T15:43:28.478Z,70.06
2023-04-02T15:46:37.663Z,70.23
2023-04-02T15:49:31.654Z,70.15
2023-04-02T15:52:53.815Z,70.11
2023-04-02T15:55:45.483Z,70.34
2023-04-02T15:58:42.671Z,70.00
2023-04-02T16:01:33.877Z,70.17
2023-04-02T16:04:19.778Z,70.19
2023-04-02T16:07:46.216Z,69.87
2023-04-02T16:13:34.822Z,70.48
2023-04-02T16:16:31.977Z,70.01
2023-04-02T16:19:46.772Z,69.75
2023-04-02T16:25:21.855Z,69.66
2023-04-02T16:31:11.068Z,69.14
2023-04-02T16:34:07.177Z,69.22
2023-04-02T16:37:17.657Z,69.56
2023-04-02T16:40:31.312Z,69.72
2023-04-02T16:46:40.902Z,69.49
2023-04-02T16:52:49.838Z,70.02
2023-04-02T16:58:56.412Z,70.20
2023-04-02T17:02:18.288Z,70.44
2023-04-02T17:05:19.378Z,70.79
2023-04-02T17:08:13.599Z,70.63
2023-04-02T17:11:14.292Z,70.67
2023-04-02T17:14:21.080Z,71.02
2023-04-02T17:17:11.507Z,70.92
2023-04-02T17:20:00.001Z,71.19
2023-04-02T17:22:46.980Z,70.88
2023-04-02T17:25:36.533Z,71.07
2023-04-02T17:28:28.479Z,71.31
2023-04-02T17:31:21.913Z,71.30
2023-04-02T17:34:17.788Z,71.07
2023-04-02T17:37:19.022Z,71.32
2023-04-02T17:40:08.085Z,70.99
2023-04-02T17:46:37.220Z,71.35
2023-04-02T17:49:49.846Z,71.51
2023-04-02T17:55:48.824Z,70.98
2023-04-02T18:01:57.023Z,71.22
2023-04-02T18:08:04.778Z,71.35
2023-04-02T18:11:26.626Z,71.51
2023-04-02T18:14:37.211Z,71.03
2023-04-02T18:20:27.716Z,71.03
2023-04-02T18:23:38.325Z,70.68
2023-04-02T18:26:27.155Z,70.86
2023-04-02T18:29:18.316Z,70.53
2023-04-02T18:32:22.227Z,70.95
2023-04-02T18:35:20.044Z,71.10
2023-04-02T18:38:23.779Z,71.09
2023-04-02T18:41:36.714Z,70.96
2023-04-02T18:44:49.876Z,71.11
2023-04-02T18:47:51.698Z,70.85
2023-04-02T18:50:40.287Z,70.97
2023-04-02T18:53:36.019Z,70.74
2023-04-02T19:02:49.047Z,70.32
2023-04-02T19:05:35.350Z,70.60
2023-04-02T19:08:37.536Z,70.36
2023-04-02T19:11:30.725Z,70.55
2023-04-02T19:17:27.983Z,70.87
2023-04-02T19:20:16.335Z,70.40
2023-04-02T19:23:27.036Z,70.41
2023-04-02T19:26:17.069Z,70.55
2023-04-02T19:32:57.025Z,70.03
2023-04-02T19:38:41.410Z,69.73
2023-04-02T19:41:47.427Z,69.51
2023-04-02T19:44:32.750Z,69.40
2023-04-02T19:47:19.689Z,69.15
2023-04-02T19:53:26.104Z,69.16
2023-04-02T19:56:12.439Z,69.07
2023-04-02T19:59:02.321Z,69.33
2023-04-02T20:01:51.689Z,69.56
2023-04-02T20:11:00.079Z,69.12
2023-04-02T20:13:45.256Z,68.77
2023-04-02T20:19:23.937Z,68.65
2023-04-02T20:25:58.052Z,68.03
2023-04-02T20:28:43.448Z,67.66
2023-04-02T20:41:15.613Z,66.21
2023-04-02T21:00:14.656Z,65.83
2023-04-02T21:03:00.220Z,65.92
2023-04-02T21:08:53.740Z,65.78
2023-04-02T21:14:37.334Z,66.09
2023-04-02T21:17:24.020Z,65.73
2023-04-02T21:23:02.538Z,64.14
2023-04-02T21:26:01.529Z,63.61
2023-04-02T21:28:48.181Z,63.45
2023-04-02T21:38:16.851Z,63.71
2023-04-02T21:41:10.253Z,63.96
2023-04-02T21:43:57.092Z,63.86
2023-04-02T21:46:43.508Z,63.91
2023-04-02T21:49:29.133Z,64.11
2023-04-02T21:52:15.267Z,64.09
2023-04-02T21:58:03.503Z,63.67
2023-04-02T22:04:07.214Z,63.36
2023-04-02T22:06:52.788Z,63.75
2023-04-02T22:09:38.115Z,63.99
2023-04-02T22:12:22.955Z,64.11
2023-04-02T22:28:00.941Z,63.71
2023-04-02T22:30:48.468Z,63.74
2023-04-02T22:33:36.519Z,63.75
2023-04-02T22:36:24.390Z,63.76
2023-04-02T22:39:11.902Z,63.29
2023-04-02T22:41:56.961Z,63.46
2023-04-02T22:44:43.570Z,63.51
2023-04-02T22:47:29.080Z,63.76
2023-04-02T22:50:18.492Z,63.63
2023-04-02T22:53:04.055Z,63.90
2023-04-02T22:55:51.647Z,63.89
2023-04-02T22:58:38.226Z,64.00
2023-04-02T23:01:28.078Z,63.69
2023-04-02T23:04:13.751Z,63.49
2023-04-02T23:06:59.074Z,63.46
2023-04-02T23:09:43.922Z,63.49
2023-04-02T23:12:29.027Z,63.53
2023-04-02T23:15:15.034Z,63.27
2023-04-02T23:18:00.385Z,62.83
2023-04-02T23:27:14.160Z,62.91
2023-04-02T23:29:59.075Z,63.26
2023-04-02T23:35:43.783Z,63.30
2023-04-02T23:38:29.122Z,63.22
2023-04-02T23:47:01.230Z,63.77
2023-04-02T23:49:47.233Z,64.04
2023-04-02T23:52:32.418Z,64.24
2023-04-02T23:55:17.367Z,64.29
2023-04-02T23:58:03.476Z,64.63
